createdAt,value
2022-10-08T00:03:43.336Z,6.65
2022-10-08T00:08:58.727Z,7.38
2022-10-08T00:14:01.945Z,7.05
2022-10-08T00:19:07.838Z,7.10
2022-10-08T00:24:13.137Z,7.22
2022-10-08T00:29:16.741Z,7.43
2022-10-08T00:34:21.836Z,6.88
2022-10-08T00:39:24.643Z,6.63
2022-10-08T00:44:50.640Z,6.90
2022-10-08T00:49:57.393Z,6.82
2022-10-08T00:54:59.040Z,6.15
2022-10-08T01:00:05.141Z,6.82
2022-10-08T01:05:07.486Z,6.60
2022-10-08T01:10:26.690Z,6.35
2022-10-08T01:15:33.685Z,6.10
2022-10-08T01:20:43.461Z,7.20
2022-10-08T01:26:28.986Z,6.18
2022-10-08T01:31:35.565Z,6.53
2022-10-08T01:36:43.230Z,5.30
2022-10-08T01:41:58.443Z,4.40
2022-10-08T01:47:03.747Z,3.55
2022-10-08T01:52:11.824Z,4.93
2022-10-08T01:57:13.758Z,4.05
2022-10-08T02:02:21.774Z,3.90
2022-10-08T02:07:23.078Z,4.47
2022-10-08T02:12:24.608Z,4.22
2022-10-08T02:18:07.852Z,3.58
2022-10-08T02:23:22.995Z,4.45
2022-10-08T02:28:43.364Z,4.47
2022-10-08T02:33:51.768Z,3.65
2022-10-08T02:38:57.518Z,3.80
2022-10-08T02:44:03.028Z,4.47
2022-10-08T02:49:37.609Z,4.32
2022-10-08T02:54:42.498Z,3.90
2022-10-08T02:59:45.552Z,3.83
2022-10-08T03:04:56.627Z,3.35
2022-10-08T03:10:00.397Z,3.75
2022-10-08T03:15:02.103Z,3.42
2022-10-08T03:20:06.428Z,3.22
2022-10-08T03:30:09.956Z,3.72
2022-10-08T03:35:11.846Z,3.97
2022-10-08T03:40:13.087Z,3.30
2022-10-08T03:45:14.512Z,3.45
2022-10-08T03:50:15.864Z,3.65
2022-10-08T03:55:17.434Z,3.45
2022-10-08T04:00:18.901Z,3.35
2022-10-08T04:05:20.145Z,3.83
2022-10-08T04:10:21.475Z,3.55
2022-10-08T04:15:22.731Z,3.67
2022-10-08T04:20:24.143Z,3.47
2022-10-08T04:25:25.652Z,3.28
2022-10-08T04:30:26.986Z,3.75
2022-10-08T04:35:28.246Z,3.28
2022-10-08T04:40:29.511Z,3.53
2022-10-08T04:45:30.787Z,3.50
2022-10-08T04:50:32.181Z,3.83
2022-10-08T04:55:33.995Z,3.60
2022-10-08T05:00:35.837Z,3.83
2022-10-08T05:05:41.955Z,4.07
2022-10-08T05:10:49.828Z,3.55
2022-10-08T05:15:51.404Z,3.53
2022-10-08T05:20:52.710Z,3.53
2022-10-08T05:25:54.005Z,3.28
2022-10-08T05:31:01.990Z,3.33
2022-10-08T05:36:09.210Z,3.38
2022-10-08T05:41:25.728Z,3.90
2022-10-08T05:46:28.394Z,3.78
2022-10-08T05:51:30.124Z,3.70
2022-10-08T05:56:31.633Z,4.20
2022-10-08T06:01:34.051Z,3.63
2022-10-08T06:06:40.134Z,3.85
2022-10-08T06:11:42.589Z,4.50
2022-10-08T06:16:43.919Z,3.10
2022-10-08T06:21:45.393Z,3.38
2022-10-08T06:26:46.689Z,4.10
2022-10-08T06:31:48.898Z,3.58
2022-10-08T06:36:50.500Z,3.85
2022-10-08T06:41:52.120Z,3.70
2022-10-08T06:46:54.581Z,4.43
2022-10-08T06:51:55.922Z,4.15
2022-10-08T06:56:57.400Z,3.10
2022-10-08T07:01:58.775Z,4.78
2022-10-08T07:07:00.101Z,3.33
2022-10-08T07:12:02.436Z,3.30
2022-10-08T07:17:03.773Z,3.38
2022-10-08T07:22:05.049Z,5.13
2022-10-08T07:27:06.305Z,3.50
2022-10-08T07:32:07.562Z,3.50
2022-10-08T07:37:08.832Z,4.43
2022-10-08T07:42:10.131Z,3.47
2022-10-08T07:47:11.461Z,3.97
2022-10-08T07:52:12.736Z,3.35
2022-10-08T07:57:14.253Z,2.90
2022-10-08T08:02:15.729Z,2.97
2022-10-08T08:07:17.215Z,2.90
2022-10-08T08:12:18.531Z,3.00
2022-10-08T08:17:19.905Z,3.65
2022-10-08T08:22:21.218Z,2.65
2022-10-08T08:27:22.487Z,2.33
2022-10-08T08:32:28.421Z,1.98
2022-10-08T08:37:30.112Z,2.30
2022-10-08T08:42:53.748Z,2.80
2022-10-08T08:48:13.813Z,3.13
2022-10-08T08:53:15.186Z,2.30
2022-10-08T08:58:35.940Z,1.73
2022-10-08T09:03:45.978Z,1.95
2022-10-08T09:08:56.573Z,1.88
2022-10-08T09:14:34.499Z,1.90
2022-10-08T09:19:37.744Z,2.42
2022-10-08T09:24:39.151Z,2.10
2022-10-08T09:29:40.668Z,1.92
2022-10-08T09:34:43.165Z,1.77
2022-10-08T09:40:13.593Z,1.75
2022-10-08T09:45:34.019Z,1.80
2022-10-08T09:50:37.143Z,2.28
2022-10-08T09:55:38.507Z,1.63
2022-10-08T10:00:39.865Z,1.83
2022-10-08T10:05:41.454Z,1.60
2022-10-08T10:10:45.719Z,2.00
2022-10-08T10:15:53.005Z,1.77
2022-10-08T10:20:58.598Z,1.45
2022-10-08T10:26:23.874Z,2.10
2022-10-08T10:31:31.809Z,1.05
2022-10-08T10:36:38.682Z,1.88
2022-10-08T10:41:48.125Z,0.98
2022-10-08T10:46:55.056Z,1.05
2022-10-08T10:52:05.623Z,0.98
2022-10-08T10:57:22.662Z,1.48
2022-10-08T11:02:49.707Z,1.02
2022-10-08T11:08:00.576Z,1.35
2022-10-08T11:13:17.920Z,1.65
2022-10-08T11:18:46.739Z,1.20
2022-10-08T11:24:19.448Z,1.25
2022-10-08T11:29:33.906Z,1.88
2022-10-08T11:34:42.571Z,1.17
2022-10-08T11:39:53.586Z,1.00
2022-10-08T11:44:54.865Z,1.20
2022-10-08T11:49:56.294Z,1.60
2022-10-08T11:55:00.864Z,1.33
2022-10-08T12:00:08.859Z,1.23
2022-10-08T12:05:22.491Z,0.75
2022-10-08T12:10:29.726Z,0.75
2022-10-08T12:15:33.375Z,0.70
2022-10-08T12:20:34.947Z,0.70
2022-10-08T12:25:48.997Z,0.80
2022-10-08T12:30:52.119Z,1.02
2022-10-08T12:36:22.141Z,0.80
2022-10-08T12:41:45.056Z,0.90
2022-10-08T12:46:56.219Z,0.85
2022-10-08T12:52:05.405Z,1.15
2022-10-08T12:57:12.473Z,1.30
2022-10-08T13:02:42.101Z,1.50
2022-10-08T13:07:43.981Z,1.48
2022-10-08T13:13:05.157Z,1.38
2022-10-08T13:18:14.868Z,1.07
2022-10-08T13:23:33.507Z,1.38
2022-10-08T13:28:59.518Z,0.80
2022-10-08T13:33:55.991Z,0.90
2022-10-08T13:38:57.347Z,1.00
2022-10-08T13:43:58.609Z,0.70
2022-10-08T13:48:59.879Z,0.93
2022-10-08T13:54:01.222Z,0.82
2022-10-08T13:59:02.462Z,0.90
2022-10-08T14:04:03.716Z,0.70
2022-10-08T14:09:07.153Z,0.80
2022-10-08T14:14:15.585Z,1.00
2022-10-08T14:19:18.194Z,0.85
2022-10-08T14:24:19.512Z,1.00
2022-10-08T14:29:20.815Z,0.50
2022-10-08T14:34:22.154Z,0.40
2022-10-08T14:39:24.241Z,1.65
2022-10-08T14:44:25.551Z,0.70
2022-10-08T14:49:26.891Z,0.90
2022-10-08T14:54:28.190Z,0.97
2022-10-08T14:59:29.443Z,0.70
2022-10-08T15:04:30.684Z,0.70
2022-10-08T15:09:32.129Z,1.13
2022-10-08T15:14:37.967Z,1.00
2022-10-08T15:19:39.852Z,0.90
2022-10-08T15:24:41.309Z,0.90
2022-10-08T15:29:42.586Z,0.80
2022-10-08T15:34:43.938Z,0.95
2022-10-08T15:39:45.233Z,1.15
2022-10-08T15:44:46.670Z,1.40
2022-10-08T15:49:48.011Z,1.73
2022-10-08T15:54:49.295Z,1.10
2022-10-08T15:59:50.555Z,1.40
2022-10-08T16:04:53.159Z,1.77
2022-10-08T16:09:54.421Z,1.77
2022-10-08T16:14:55.743Z,1.98
2022-10-08T16:19:56.983Z,1.40
2022-10-08T16:24:58.284Z,1.40
2022-10-08T16:29:59.649Z,1.60
2022-10-08T16:35:01.187Z,1.33
2022-10-08T16:40:03.865Z,1.67
2022-10-08T16:45:05.765Z,1.50
2022-10-08T16:50:07.260Z,1.45
2022-10-08T16:55:09.061Z,3.13
2022-10-08T17:00:11.134Z,2.95
2022-10-08T17:05:12.373Z,3.80
2022-10-08T17:10:13.686Z,3.22
2022-10-08T17:15:15.041Z,2.40
2022-10-08T17:20:16.316Z,2.10
2022-10-08T17:25:17.603Z,2.00
2022-10-08T17:30:18.911Z,2.38
2022-10-08T17:35:20.185Z,2.03
2022-10-08T17:40:21.542Z,2.90
2022-10-08T17:45:22.812Z,2.83
2022-10-08T17:50:24.051Z,2.20
2022-10-08T17:55:25.301Z,2.75
2022-10-08T18:00:27.867Z,2.80
2022-10-08T18:05:29.126Z,2.92
2022-10-08T18:10:30.365Z,3.13
2022-10-08T18:15:31.710Z,4.13
2022-10-08T18:20:32.966Z,3.58
2022-10-08T18:25:35.780Z,3.10
2022-10-08T18:30:37.021Z,3.47
2022-10-08T18:35:38.269Z,2.90
2022-10-08T18:40:39.567Z,3.22
2022-10-08T18:45:40.800Z,3.78
2022-10-08T18:50:42.132Z,2.88
2022-10-08T18:55:49.531Z,3.35
2022-10-08T19:00:50.858Z,3.65
2022-10-08T19:05:52.877Z,3.10
2022-10-08T19:10:54.141Z,4.20
2022-10-08T19:15:55.467Z,3.63
2022-10-08T19:20:56.780Z,5.82
2022-10-08T19:25:58.057Z,4.47
2022-10-08T19:30:59.418Z,4.47
2022-10-08T19:36:00.974Z,3.03
2022-10-08T19:41:07.576Z,2.85
2022-10-08T19:46:09.218Z,2.22
2022-10-08T19:51:11.457Z,2.47
2022-10-08T19:56:13.940Z,4.40
2022-10-08T20:01:21.274Z,4.10
2022-10-08T20:06:25.224Z,3.03
2022-10-08T20:11:27.669Z,2.05
2022-10-08T20:16:32.869Z,1.73
2022-10-08T20:21:37.196Z,1.60
2022-10-08T20:31:43.654Z,2.08
2022-10-08T20:36:46.185Z,1.50
2022-10-08T20:41:47.584Z,1.67
2022-10-08T20:46:50.518Z,3.70
2022-10-08T20:51:51.989Z,3.38
2022-10-08T20:56:53.287Z,2.35
2022-10-08T21:01:54.684Z,2.50
2022-10-08T21:06:55.945Z,1.52
2022-10-08T21:11:57.203Z,2.47
2022-10-08T21:16:58.515Z,2.42
2022-10-08T21:21:59.742Z,2.25
2022-10-08T21:27:01.067Z,3.00
2022-10-08T21:32:02.442Z,3.00
2022-10-08T21:37:03.739Z,3.90
2022-10-08T21:42:05.014Z,3.25
2022-10-08T21:47:06.271Z,3.45
2022-10-08T21:52:07.613Z,4.22
2022-10-08T21:57:10.059Z,3.60
2022-10-08T22:02:12.611Z,3.55
2022-10-08T22:07:13.951Z,4.00
2022-10-08T22:12:15.211Z,3.70
2022-10-08T22:17:16.457Z,3.40
2022-10-08T22:22:17.719Z,3.40
2022-10-08T22:27:18.982Z,3.10
2022-10-08T22:32:20.270Z,3.88
2022-10-08T22:37:21.515Z,4.63
2022-10-08T22:42:22.858Z,5.25
2022-10-08T22:47:24.222Z,5.10
2022-10-08T22:52:25.679Z,5.13
2022-10-08T22:57:26.909Z,6.50
2022-10-08T23:02:28.225Z,6.38
2022-10-08T23:07:29.594Z,5.40
2022-10-08T23:12:30.942Z,6.25
2022-10-08T23:17:32.357Z,6.72
2022-10-08T23:22:33.661Z,7.22
2022-10-08T23:27:35.026Z,5.90
2022-10-08T23:32:36.308Z,5.47
2022-10-08T23:37:37.641Z,5.60
2022-10-08T23:42:38.938Z,5.10
2022-10-08T23:47:40.510Z,6.28
2022-10-08T23:52:41.802Z,6.05
2022-10-08T23:57:43.070Z,5.38
